createdAt,value
2019-02-05T00:01:14.613Z,6.70
2019-02-05T00:03:41.908Z,6.70
2019-02-05T00:06:09.014Z,6.08
2019-02-05T00:08:36.396Z,6.72
2019-02-05T00:11:03.545Z,6.92
2019-02-05T00:13:30.634Z,6.37
2019-02-05T00:15:57.637Z,8.03
2019-02-05T00:18:24.641Z,7.60
2019-02-05T00:20:53.552Z,6.92
2019-02-05T00:23:20.601Z,6.80
2019-02-05T00:25:48.055Z,4.70
2019-02-05T00:28:15.271Z,6.15
2019-02-05T00:30:42.320Z,7.55
2019-02-05T00:33:10.353Z,6.87
2019-02-05T00:35:37.292Z,7.28
2019-02-05T00:38:06.307Z,11.53
2019-02-05T00:40:33.293Z,6.97
2019-02-05T00:43:00.804Z,6.00
2019-02-05T00:45:27.738Z,9.53
2019-02-05T00:47:54.853Z,6.95
2019-02-05T00:50:22.074Z,6.20
2019-02-05T00:52:49.113Z,5.25
2019-02-05T00:55:16.763Z,6.03
2019-02-05T00:57:43.826Z,8.70
2019-02-05T01:00:17.970Z,6.50
2019-02-05T01:02:45.120Z,10.75
2019-02-05T01:05:12.880Z,5.90
2019-02-05T01:07:39.885Z,6.12
2019-02-05T01:10:08.951Z,9.10
2019-02-05T01:12:36.071Z,6.03
2019-02-05T01:15:05.003Z,6.35
2019-02-05T01:17:31.992Z,5.92
2019-02-05T01:19:59.186Z,6.60
2019-02-05T01:22:26.246Z,6.90
2019-02-05T01:24:53.277Z,6.17
2019-02-05T01:27:20.330Z,7.40
2019-02-05T01:29:47.364Z,6.30
2019-02-05T01:32:15.836Z,8.00
2019-02-05T01:34:43.043Z,8.70
2019-02-05T01:37:10.049Z,9.28
2019-02-05T01:39:37.085Z,9.48
2019-02-05T01:42:04.204Z,8.13
2019-02-05T01:44:31.202Z,7.25
2019-02-05T01:47:00.043Z,7.58
2019-02-05T01:49:27.085Z,7.83
2019-02-05T01:51:54.412Z,9.80
2019-02-05T01:54:21.471Z,8.63
2019-02-05T01:56:50.335Z,6.15
2019-02-05T01:59:17.394Z,7.87
2019-02-05T02:01:44.438Z,7.95
2019-02-05T02:04:11.611Z,9.08
2019-02-05T02:06:38.599Z,7.92
2019-02-05T02:09:06.609Z,6.90
2019-02-05T02:11:33.646Z,7.00
2019-02-05T02:14:00.662Z,9.78
2019-02-05T02:16:27.644Z,6.90
2019-02-05T02:18:56.400Z,11.45
2019-02-05T02:21:23.428Z,10.93
2019-02-05T02:23:50.475Z,10.60
2019-02-05T02:26:17.555Z,10.30
2019-02-05T02:28:44.663Z,7.00
2019-02-05T02:31:11.760Z,11.90
2019-02-05T02:33:39.035Z,8.50
2019-02-05T02:36:06.104Z,8.15
2019-02-05T02:38:33.061Z,8.95
2019-02-05T02:41:00.136Z,8.90
2019-02-05T02:43:27.104Z,8.88
2019-02-05T02:45:54.745Z,8.10
2019-02-05T02:48:21.824Z,9.68
2019-02-05T02:50:49.157Z,9.35
2019-02-05T02:53:16.170Z,8.53
2019-02-05T02:55:43.183Z,7.25
2019-02-05T02:58:13.497Z,10.23
2019-02-05T03:00:39.006Z,15.10
2019-02-05T03:03:06.345Z,9.75
2019-02-05T03:05:33.348Z,9.88
2019-02-05T03:08:00.377Z,9.63
2019-02-05T03:10:28.975Z,12.33
2019-02-05T03:12:56.745Z,9.15
2019-02-05T03:15:23.925Z,9.75
2019-02-05T03:17:51.186Z,14.40
2019-02-05T03:20:18.575Z,7.30
2019-02-05T03:22:45.999Z,7.20
2019-02-05T03:25:16.689Z,6.90
2019-02-05T03:27:43.674Z,8.88
2019-02-05T03:30:13.856Z,9.75
2019-02-05T03:32:40.871Z,8.15
2019-02-05T03:35:08.198Z,10.65
2019-02-05T03:37:35.204Z,9.45
2019-02-05T03:40:03.227Z,12.43
2019-02-05T03:42:30.806Z,8.35
2019-02-05T03:44:57.861Z,8.80
2019-02-05T03:47:26.836Z,8.10
2019-02-05T03:49:53.938Z,7.67
2019-02-05T03:52:26.366Z,8.55
2019-02-05T03:55:21.647Z,13.95
2019-02-05T03:58:48.597Z,12.58
2019-02-05T04:01:57.908Z,11.00
2019-02-05T04:05:15.088Z,8.48
2019-02-05T04:08:30.170Z,9.05
2019-02-05T04:11:34.492Z,9.18
2019-02-05T04:14:38.847Z,7.50
2019-02-05T04:18:02.997Z,12.85
2019-02-05T04:21:00.565Z,11.15
2019-02-05T04:23:54.979Z,9.90
2019-02-05T04:26:47.565Z,9.68
2019-02-05T04:29:58.401Z,9.38
2019-02-05T04:33:01.233Z,10.32
2019-02-05T04:36:09.193Z,6.80
2019-02-05T04:39:08.177Z,10.72
2019-02-05T04:42:20.032Z,10.20
2019-02-05T04:45:14.652Z,8.48
2019-02-05T04:48:19.637Z,8.35
2019-02-05T04:51:36.336Z,7.62
2019-02-05T04:54:42.375Z,7.78
2019-02-05T04:57:18.737Z,13.32
2019-02-05T05:00:18.424Z,11.20
2019-02-05T05:03:05.812Z,9.25
2019-02-05T05:06:15.004Z,9.35
2019-02-05T05:09:13.390Z,9.03
2019-02-05T05:11:41.163Z,10.38
2019-02-05T05:14:08.528Z,11.15
2019-02-05T05:16:35.566Z,13.00
2019-02-05T05:19:03.295Z,13.03
2019-02-05T05:21:30.964Z,11.40
2019-02-05T05:23:58.285Z,10.43
2019-02-05T05:26:25.991Z,11.63
2019-02-05T05:28:53.244Z,11.83
2019-02-05T05:31:20.386Z,9.63
2019-02-05T05:33:47.459Z,10.43
2019-02-05T05:36:14.499Z,11.93
2019-02-05T05:38:43.325Z,9.83
2019-02-05T05:41:10.361Z,10.15
2019-02-05T05:43:37.590Z,9.98
2019-02-05T05:46:04.727Z,11.15
2019-02-05T05:48:31.749Z,8.43
2019-02-05T05:50:58.784Z,11.97
2019-02-05T05:53:25.820Z,9.55
2019-02-05T05:55:52.827Z,9.08
2019-02-05T05:58:23.121Z,10.38
2019-02-05T06:00:48.858Z,10.53
2019-02-05T06:03:16.085Z,10.43
2019-02-05T06:05:44.906Z,11.97
2019-02-05T06:08:11.927Z,11.68
2019-02-05T06:10:38.909Z,13.28
2019-02-05T06:13:05.947Z,19.77
2019-02-05T06:15:35.831Z,16.65
2019-02-05T06:18:01.931Z,14.28
2019-02-05T06:20:30.998Z,13.93
2019-02-05T06:22:59.848Z,14.30
2019-02-05T06:25:26.897Z,13.93
2019-02-05T06:27:54.149Z,13.18
2019-02-05T06:30:21.227Z,12.78
2019-02-05T06:32:48.288Z,11.85
2019-02-05T06:35:15.487Z,12.28
2019-02-05T06:37:42.610Z,15.00
2019-02-05T06:40:10.941Z,15.30
2019-02-05T06:42:38.451Z,13.18
2019-02-05T06:45:07.440Z,11.80
2019-02-05T06:47:34.441Z,12.78
2019-02-05T06:50:01.604Z,11.85
2019-02-05T06:52:28.621Z,15.72
2019-02-05T06:54:55.662Z,16.65
2019-02-05T06:57:22.674Z,13.03
2019-02-05T06:59:50.520Z,43.55
2019-02-05T07:02:17.689Z,31.30
2019-02-05T07:04:44.724Z,21.27
2019-02-05T07:07:11.926Z,13.95
2019-02-05T07:09:38.959Z,15.48
2019-02-05T07:12:05.992Z,11.83
2019-02-05T07:14:33.028Z,15.30
2019-02-05T07:17:00.025Z,13.20
2019-02-05T07:19:27.329Z,19.90
2019-02-05T07:21:54.363Z,19.30
2019-02-05T07:24:21.345Z,20.55
2019-02-05T07:26:48.356Z,15.32
2019-02-05T07:29:16.759Z,24.35
2019-02-05T07:31:43.859Z,20.15
2019-02-05T07:34:10.892Z,17.02
2019-02-05T07:36:38.897Z,13.90
2019-02-05T07:39:07.802Z,16.15
2019-02-05T07:41:34.796Z,21.85
2019-02-05T07:44:01.820Z,20.25
2019-02-05T07:46:28.855Z,19.20
2019-02-05T07:48:56.013Z,18.95
2019-02-05T07:51:23.042Z,18.80
2019-02-05T07:53:50.074Z,19.73
2019-02-05T07:56:17.085Z,24.67
2019-02-05T07:58:44.422Z,13.78
2019-02-05T08:01:12.049Z,16.65
2019-02-05T08:06:18.853Z,17.35
2019-02-05T08:08:47.068Z,17.95
2019-02-05T08:11:14.191Z,21.30
2019-02-05T08:13:41.367Z,17.62
2019-02-05T08:16:08.489Z,22.73
2019-02-05T08:18:35.554Z,14.75
2019-02-05T08:21:02.977Z,16.20
2019-02-05T08:23:30.065Z,17.52
2019-02-05T08:25:57.075Z,15.80
2019-02-05T08:28:24.144Z,19.65
2019-02-05T08:30:53.166Z,16.30
2019-02-05T08:33:20.394Z,13.48
2019-02-05T08:35:47.544Z,17.57
2019-02-05T08:38:14.609Z,15.08
2019-02-05T08:40:41.999Z,15.20
2019-02-05T08:43:09.061Z,16.17
2019-02-05T08:45:36.612Z,19.60
2019-02-05T08:48:04.819Z,13.40
2019-02-05T08:50:32.154Z,21.07
2019-02-05T08:52:59.265Z,15.58
2019-02-05T08:55:26.311Z,17.67
2019-02-05T08:57:55.390Z,18.32
2019-02-05T09:00:24.461Z,15.45
2019-02-05T09:02:51.710Z,20.90
2019-02-05T09:05:18.740Z,19.65
2019-02-05T09:07:45.912Z,17.17
2019-02-05T09:10:16.701Z,20.72
2019-02-05T09:12:43.767Z,15.05
2019-02-05T09:15:10.855Z,14.65
2019-02-05T09:17:38.184Z,13.75
2019-02-05T09:20:07.640Z,13.30
2019-02-05T09:22:34.733Z,15.58
2019-02-05T09:25:03.910Z,16.80
2019-02-05T09:27:31.065Z,17.87
2019-02-05T09:29:58.085Z,18.10
2019-02-05T09:32:25.152Z,23.60
2019-02-05T09:34:52.202Z,16.45
2019-02-05T09:37:19.273Z,15.58
2019-02-05T09:39:46.585Z,14.73
2019-02-05T09:42:13.673Z,17.55
2019-02-05T09:44:40.678Z,15.00
2019-02-05T09:47:07.722Z,20.70
2019-02-05T09:49:34.736Z,14.03
2019-02-05T09:52:04.412Z,17.30
2019-02-05T09:54:31.552Z,20.62
2019-02-05T09:56:58.646Z,14.90
2019-02-05T09:59:26.081Z,15.28
2019-02-05T10:01:53.156Z,14.10
2019-02-05T10:04:20.299Z,21.97
2019-02-05T10:06:50.021Z,14.15
2019-02-05T10:09:16.316Z,16.20
2019-02-05T10:11:43.323Z,15.83
2019-02-05T10:14:10.362Z,13.78
2019-02-05T10:16:37.361Z,21.62
2019-02-05T10:19:08.921Z,18.27
2019-02-05T10:21:36.050Z,15.32
2019-02-05T10:24:03.477Z,14.00
2019-02-05T10:26:30.524Z,15.55
2019-02-05T10:28:57.589Z,17.23
2019-02-05T10:31:24.620Z,13.50
2019-02-05T10:33:55.304Z,19.98
2019-02-05T10:36:20.560Z,15.23
2019-02-05T10:38:47.787Z,16.82
2019-02-05T10:41:15.285Z,19.27
2019-02-05T10:43:42.317Z,15.23
2019-02-05T10:46:12.396Z,13.43
2019-02-05T10:48:39.380Z,16.57
2019-02-05T10:51:06.500Z,18.32
2019-02-05T10:53:33.509Z,14.55
2019-02-05T10:56:01.337Z,15.90
2019-02-05T10:58:28.816Z,16.27
2019-02-05T11:00:55.801Z,12.58
2019-02-05T11:03:22.826Z,19.70
2019-02-05T11:05:49.919Z,19.60
2019-02-05T11:08:17.026Z,13.15
2019-02-05T11:10:44.073Z,12.63
2019-02-05T11:13:11.299Z,19.60
2019-02-05T11:15:38.368Z,16.40
2019-02-05T11:18:08.722Z,14.93
2019-02-05T11:20:36.225Z,19.37
2019-02-05T11:23:04.133Z,15.18
2019-02-05T11:25:31.325Z,19.65
2019-02-05T11:27:59.520Z,14.58
2019-02-05T11:30:29.435Z,15.63
2019-02-05T11:32:56.646Z,15.45
2019-02-05T11:35:23.860Z,16.95
2019-02-05T11:37:51.437Z,16.95
2019-02-05T11:40:21.437Z,14.45
2019-02-05T11:42:48.492Z,18.27
2019-02-05T11:45:16.558Z,19.55
2019-02-05T11:47:43.579Z,17.55
2019-02-05T11:50:11.944Z,13.75
2019-02-05T11:52:38.953Z,15.00
2019-02-05T11:55:09.449Z,14.25
2019-02-05T11:57:36.588Z,18.15
2019-02-05T12:00:05.901Z,13.03
2019-02-05T12:02:33.001Z,15.88
2019-02-05T12:05:00.352Z,14.68
2019-02-05T12:07:27.804Z,19.02
2019-02-05T12:09:55.445Z,20.85
2019-02-05T12:12:22.476Z,15.10
2019-02-05T12:14:50.564Z,15.68
2019-02-05T12:17:17.752Z,14.98
2019-02-05T12:19:44.909Z,14.40
2019-02-05T12:22:12.025Z,12.78
2019-02-05T12:24:39.428Z,13.95
2019-02-05T12:27:06.497Z,14.15
2019-02-05T12:29:33.612Z,16.25
2019-02-05T12:32:00.660Z,12.80
2019-02-05T12:34:28.291Z,12.25
2019-02-05T12:36:55.661Z,16.50
2019-02-05T12:39:22.645Z,13.98
2019-02-05T12:41:49.700Z,17.23
2019-02-05T12:44:16.955Z,13.50
2019-02-05T12:46:43.991Z,17.02
2019-02-05T12:49:11.127Z,12.53
2019-02-05T12:51:38.440Z,17.95
2019-02-05T12:54:07.111Z,14.70
2019-02-05T12:56:38.262Z,18.30
2019-02-05T12:59:04.809Z,15.83
2019-02-05T13:01:32.293Z,19.23
2019-02-05T13:03:59.559Z,16.48
2019-02-05T13:06:26.544Z,13.65
2019-02-05T13:08:54.047Z,17.67
2019-02-05T13:11:21.146Z,13.78
2019-02-05T13:13:48.741Z,15.18
2019-02-05T13:16:15.754Z,14.07
2019-02-05T13:18:42.756Z,13.30
2019-02-05T13:21:09.928Z,15.63
2019-02-05T13:23:36.933Z,16.00
2019-02-05T13:26:05.030Z,19.87
2019-02-05T13:28:32.039Z,14.53
2019-02-05T13:31:07.709Z,16.95
2019-02-05T13:33:28.213Z,16.97
2019-02-05T13:35:55.199Z,14.40
2019-02-05T13:38:22.302Z,13.45
2019-02-05T13:40:49.636Z,13.85
2019-02-05T13:43:16.950Z,17.92
2019-02-05T13:45:45.678Z,13.75
2019-02-05T13:48:12.872Z,14.47
2019-02-05T13:50:39.929Z,15.28
2019-02-05T13:53:07.028Z,15.95
2019-02-05T13:55:39.130Z,14.33
2019-02-05T13:58:06.446Z,15.30
2019-02-05T14:00:39.072Z,13.80
2019-02-05T14:03:07.226Z,10.82
2019-02-05T14:05:34.326Z,12.70
2019-02-05T14:08:01.336Z,14.45
2019-02-05T14:10:30.260Z,18.50
2019-02-05T14:12:58.147Z,17.23
2019-02-05T14:15:27.192Z,22.05
2019-02-05T14:17:55.899Z,15.50
2019-02-05T14:20:23.404Z,11.93
2019-02-05T14:22:51.594Z,15.48
2019-02-05T14:25:18.621Z,13.65
2019-02-05T14:27:45.859Z,11.57
2019-02-05T14:30:25.258Z,11.73
2019-02-05T14:32:52.378Z,15.03
2019-02-05T14:35:19.809Z,14.60
2019-02-05T14:37:46.872Z,16.42
2019-02-05T14:40:15.913Z,16.52
2019-02-05T14:42:43.305Z,19.23
2019-02-05T14:45:11.086Z,15.58
2019-02-05T14:47:38.202Z,12.53
2019-02-05T14:50:09.648Z,19.62
2019-02-05T14:52:36.977Z,14.93
2019-02-05T14:55:04.016Z,13.78
2019-02-05T14:57:31.106Z,17.02
2019-02-05T14:59:58.255Z,13.68
2019-02-05T15:02:25.347Z,19.07
2019-02-05T15:04:52.326Z,12.13
2019-02-05T15:07:19.355Z,15.23
2019-02-05T15:09:46.899Z,17.92
2019-02-05T15:12:13.944Z,14.15
2019-02-05T15:14:41.156Z,17.45
2019-02-05T15:17:08.156Z,16.42
2019-02-05T15:19:35.401Z,18.40
2019-02-05T15:22:05.966Z,16.20
2019-02-05T15:24:37.443Z,16.57
2019-02-05T15:27:02.174Z,15.38
2019-02-05T15:29:31.065Z,15.40
2019-02-05T15:31:58.298Z,15.75
2019-02-05T15:34:25.377Z,15.72
2019-02-05T15:36:52.441Z,15.50
2019-02-05T15:39:19.466Z,17.80
2019-02-05T15:41:46.966Z,12.30
2019-02-05T15:44:14.331Z,14.43
2019-02-05T15:46:41.354Z,13.70
2019-02-05T15:49:09.324Z,12.33
2019-02-05T15:51:36.596Z,14.30
2019-02-05T15:54:04.175Z,12.33
2019-02-05T15:56:31.360Z,13.93
2019-02-05T15:58:58.939Z,16.70
2019-02-05T16:01:28.182Z,16.93
2019-02-05T16:03:55.682Z,15.38
2019-02-05T16:06:23.070Z,15.80
2019-02-05T16:08:50.123Z,17.42
2019-02-05T16:11:17.253Z,16.55
2019-02-05T16:13:44.520Z,16.55
2019-02-05T16:16:11.948Z,18.40
2019-02-05T16:18:41.017Z,16.40
2019-02-05T16:21:08.123Z,21.85
2019-02-05T16:23:35.807Z,15.70
2019-02-05T16:26:03.112Z,20.72
2019-02-05T16:28:30.618Z,18.30
2019-02-05T16:30:57.702Z,14.05
2019-02-05T16:33:24.816Z,13.90
2019-02-05T16:35:52.166Z,21.07
2019-02-05T16:38:19.628Z,14.33
2019-02-05T16:40:47.041Z,13.90
2019-02-05T16:43:15.114Z,12.25
2019-02-05T16:45:44.835Z,16.52
2019-02-05T16:48:12.324Z,17.15
2019-02-05T16:50:42.323Z,19.23
2019-02-05T16:53:09.987Z,18.87
2019-02-05T16:55:37.067Z,14.80
2019-02-05T16:58:07.048Z,16.90
2019-02-05T17:00:34.347Z,17.75
2019-02-05T17:03:03.268Z,20.88
2019-02-05T17:05:33.163Z,15.78
2019-02-05T17:08:00.725Z,17.60
2019-02-05T17:10:48.948Z,18.15
2019-02-05T17:13:21.630Z,17.60
2019-02-05T17:16:04.395Z,19.55
2019-02-05T17:18:39.536Z,16.60
2019-02-05T17:21:25.934Z,17.82
2019-02-05T17:23:58.978Z,16.02
2019-02-05T17:26:32.267Z,15.65
2019-02-05T17:29:10.918Z,17.27
2019-02-05T17:31:48.021Z,18.05
2019-02-05T17:34:21.310Z,22.60
2019-02-05T17:36:57.132Z,15.93
2019-02-05T17:39:30.837Z,19.82
2019-02-05T17:42:06.035Z,23.83
2019-02-05T17:44:42.270Z,19.10
2019-02-05T17:47:16.017Z,17.85
2019-02-05T17:49:56.570Z,16.52
2019-02-05T17:52:28.642Z,21.42
2019-02-05T17:55:00.530Z,21.12
2019-02-05T17:57:46.858Z,16.42
2019-02-05T18:00:38.945Z,16.30
2019-02-05T18:03:11.168Z,14.68
2019-02-05T18:05:38.901Z,12.88
2019-02-05T18:08:06.284Z,21.80
2019-02-05T18:10:33.424Z,14.15
2019-02-05T18:13:00.720Z,15.13
2019-02-05T18:15:29.807Z,13.35
2019-02-05T18:17:56.917Z,14.45
2019-02-05T18:20:23.993Z,14.03
2019-02-05T18:22:51.947Z,15.72
2019-02-05T18:25:19.810Z,14.73
2019-02-05T18:27:46.988Z,13.60
2019-02-05T18:30:23.416Z,12.82
2019-02-05T18:32:50.765Z,15.38
2019-02-05T18:35:17.972Z,12.65
2019-02-05T18:37:45.265Z,14.18
2019-02-05T18:40:13.342Z,10.32
2019-02-05T18:42:40.608Z,9.38
2019-02-05T18:45:09.513Z,10.65
2019-02-05T18:47:37.087Z,11.93
2019-02-05T18:50:17.529Z,11.73
2019-02-05T18:52:44.846Z,13.38
2019-02-05T18:55:11.924Z,13.32
2019-02-05T18:57:39.173Z,12.55
2019-02-05T19:00:10.996Z,9.78
2019-02-05T19:02:40.713Z,10.58
2019-02-05T19:05:09.056Z,16.12
2019-02-05T19:07:36.272Z,9.55
2019-02-05T19:10:06.270Z,16.73
2019-02-05T19:12:33.315Z,11.93
2019-02-05T19:15:00.557Z,17.07
2019-02-05T19:17:27.589Z,14.70
2019-02-05T19:19:54.699Z,13.68
2019-02-05T19:22:21.809Z,16.12
2019-02-05T19:24:50.705Z,13.68
2019-02-05T19:27:17.802Z,9.93
2019-02-05T19:29:44.710Z,14.50
2019-02-05T19:32:13.792Z,17.23
2019-02-05T19:34:40.939Z,13.35
2019-02-05T19:37:08.204Z,16.07
2019-02-05T19:39:35.266Z,14.85
2019-02-05T19:42:02.741Z,15.90
2019-02-05T19:44:30.220Z,11.10
2019-02-05T19:46:59.357Z,12.45
2019-02-05T19:49:26.992Z,15.35
2019-02-05T19:51:54.170Z,14.33
2019-02-05T19:54:23.205Z,12.88
2019-02-05T19:56:50.269Z,13.45
2019-02-05T19:59:19.395Z,15.70
2019-02-05T20:01:46.473Z,10.82
2019-02-05T20:04:16.126Z,13.22
2019-02-05T20:06:43.325Z,14.65
2019-02-05T20:09:13.047Z,8.73
2019-02-05T20:11:41.545Z,10.10
2019-02-05T20:14:08.792Z,13.95
2019-02-05T20:16:35.944Z,15.50
2019-02-05T20:19:03.179Z,12.78
2019-02-05T20:21:32.033Z,15.90
2019-02-05T20:23:59.347Z,14.78
2019-02-05T20:26:26.422Z,16.60
2019-02-05T20:28:53.740Z,12.53
2019-02-05T20:31:20.746Z,11.85
2019-02-05T20:33:49.880Z,17.05
2019-02-05T20:36:17.155Z,13.48
2019-02-05T20:38:45.065Z,11.80
2019-02-05T20:41:12.161Z,15.32
2019-02-05T20:43:39.751Z,13.25
2019-02-05T20:46:07.294Z,12.23
2019-02-05T20:48:34.283Z,13.03
2019-02-05T20:51:01.594Z,14.40
2019-02-05T20:53:28.938Z,15.95
2019-02-05T20:55:56.139Z,13.25
2019-02-05T20:58:23.223Z,14.23
2019-02-05T21:00:50.751Z,13.13
2019-02-05T21:03:19.085Z,14.75
2019-02-05T21:05:46.620Z,14.58
2019-02-05T21:08:14.065Z,17.30
2019-02-05T21:10:41.472Z,13.45
2019-02-05T21:13:08.958Z,12.95
2019-02-05T21:15:36.704Z,13.50
2019-02-05T21:18:04.441Z,16.90
2019-02-05T21:20:33.235Z,16.15
2019-02-05T21:23:01.789Z,20.52
2019-02-05T21:25:32.021Z,20.12
2019-02-05T21:27:59.222Z,12.78
2019-02-05T21:30:26.991Z,17.10
2019-02-05T21:32:54.073Z,11.48
2019-02-05T21:35:21.266Z,22.15
2019-02-05T21:37:48.364Z,15.75
2019-02-05T21:40:18.301Z,14.05
2019-02-05T21:42:45.375Z,17.02
2019-02-05T21:45:15.391Z,15.25
2019-02-05T21:47:42.536Z,11.95
2019-02-05T21:50:12.130Z,13.70
2019-02-05T21:52:39.191Z,13.28
2019-02-05T21:55:07.798Z,13.05
2019-02-05T21:57:35.140Z,13.88
2019-02-05T22:00:03.393Z,11.83
2019-02-05T22:02:31.107Z,18.98
2019-02-05T22:04:58.237Z,14.83
2019-02-05T22:07:25.583Z,14.80
2019-02-05T22:09:52.664Z,15.18
2019-02-05T22:12:19.830Z,16.87
2019-02-05T22:14:47.085Z,14.63
2019-02-05T22:17:14.425Z,13.85
2019-02-05T22:19:41.716Z,16.93
2019-02-05T22:22:09.532Z,15.95
2019-02-05T22:24:36.809Z,19.40
2019-02-05T22:27:05.545Z,18.50
2019-02-05T22:29:32.761Z,21.35
2019-02-05T22:31:59.848Z,16.87
2019-02-05T22:34:38.607Z,16.52
2019-02-05T22:36:55.764Z,23.73
2019-02-05T22:39:23.525Z,15.35
2019-02-05T22:41:50.875Z,12.63
2019-02-05T22:44:18.120Z,18.25
2019-02-05T22:46:45.728Z,17.40
2019-02-05T22:49:13.067Z,22.75
2019-02-05T22:51:40.153Z,21.42
2019-02-05T22:54:07.201Z,17.55
2019-02-05T22:56:34.284Z,18.62
2019-02-05T22:59:01.737Z,17.48
2019-02-05T23:01:39.218Z,18.17
2019-02-05T23:04:33.805Z,18.35
2019-02-05T23:07:08.446Z,16.55
2019-02-05T23:09:41.037Z,15.80
2019-02-05T23:12:14.530Z,37.35
2019-02-05T23:14:51.924Z,16.30
2019-02-05T23:17:18.934Z,17.90
2019-02-05T23:19:46.348Z,26.45
2019-02-05T23:22:13.546Z,19.10
2019-02-05T23:24:40.627Z,24.18
2019-02-05T23:27:07.753Z,21.50
2019-02-05T23:29:34.792Z,21.25
2019-02-05T23:32:02.310Z,17.40
2019-02-05T23:34:29.395Z,19.00
2019-02-05T23:36:56.384Z,16.62
2019-02-05T23:39:23.606Z,20.20
2019-02-05T23:41:50.662Z,18.80
2019-02-05T23:44:17.717Z,19.17
2019-02-05T23:46:44.740Z,20.52
2019-02-05T23:49:12.086Z,15.13
2019-02-05T23:51:39.104Z,17.02
2019-02-05T23:54:06.344Z,20.60
2019-02-05T23:56:33.371Z,12.65
2019-02-05T23:59:00.837Z,17.60
